Accedi per prenotare

Caricamento...

Situazione Metar e Taf aeroporto Pisa - Effemeridi Aeroporto Lucca

[Source: ADDS]
METAR
LIRP 172115Z VRB02KT CAVOK 21/20 Q1014 NOSIG =
TAF
LIRP 171700Z 1718/1818 29010KT 9999 FEW050 BECMG 1720/1722 VRB04KT BECMG 1810/1812 29010KT =
SR / SS: 04:28 / 18:19 UTC (Effemeridi LIQL 2018-08-17)